Time;durP1;ratioP1;P1;durP2;ratioP2;P2;SDS_P1;SDS_P2;PMS_P1;PMS_P2;Temp;Humidity;BMP_temperature;BMP_pressure;BME280_temperature;BME280_humidity;BME280_pressure;Samples;Min_cycle;Max_cycle;Signal;HPM_P1;HPM_P2
2023/05/03 00:01:08;;;;;;;6.40;3.90;;;5.60;99.90;;;;;;4972461;28;20498;-83
2023/05/03 00:03:36;;;;;;;6.73;3.80;;;5.50;99.90;;;;;;4959100;29;20974;-84
2023/05/03 00:06:11;;;;;;;4.03;3.30;;;5.50;99.90;;;;;;4967121;28;20487;-82
2023/05/03 00:08:38;;;;;;;8.60;4.37;;;5.40;99.90;;;;;;4959419;29;20439;-83
2023/05/03 00:11:05;;;;;;;8.33;5.07;;;5.40;99.90;;;;;;4957863;28;21031;-83
2023/05/03 00:13:32;;;;;;;6.50;4.17;;;5.40;99.90;;;;;;4959584;28;20454;-83
2023/05/03 00:15:59;;;;;;;9.03;3.60;;;5.40;99.90;;;;;;4971898;28;20482;-83
2023/05/03 00:18:25;;;;;;;5.13;3.53;;;5.40;99.90;;;;;;4979244;28;20485;-82
2023/05/03 00:20:54;;;;;;;7.27;3.73;;;5.40;99.90;;;;;;4978885;28;20461;-83
2023/05/03 00:23:22;;;;;;;6.50;3.60;;;5.40;99.90;;;;;;4977330;28;20472;-83
2023/05/03 00:25:52;;;;;;;3.67;3.27;;;5.30;99.90;;;;;;4976572;28;20501;-82
2023/05/03 00:28:19;;;;;;;5.87;3.60;;;5.30;99.90;;;;;;4976648;28;20954;-84
2023/05/03 00:30:46;;;;;;;5.97;3.53;;;5.30;99.90;;;;;;4957086;28;20474;-82
2023/05/03 00:33:13;;;;;;;13.80;3.57;;;5.30;99.90;;;;;;4957285;28;20538;-82
2023/05/03 00:35:40;;;;;;;7.33;3.50;;;5.20;99.90;;;;;;4966208;28;20473;-82
2023/05/03 00:38:06;;;;;;;5.80;4.50;;;5.20;99.90;;;;;;4968133;28;20458;-83
2023/05/03 00:40:34;;;;;;;4.63;3.10;;;5.20;99.90;;;;;;4975570;28;20543;-83
2023/05/03 00:43:01;;;;;;;7.90;4.47;;;5.20;99.90;;;;;;4967814;28;20982;-82
2023/05/03 00:45:30;;;;;;;3.77;3.30;;;5.10;99.90;;;;;;4965296;28;20491;-82
2023/05/03 00:47:57;;;;;;;4.20;2.83;;;5.10;99.90;;;;;;4970179;28;20520;-83
2023/05/03 00:50:24;;;;;;;6.33;3.80;;;5.10;99.90;;;;;;4957632;28;20465;-83
2023/05/03 00:52:51;;;;;;;6.90;4.00;;;5.00;99.90;;;;;;4963389;28;20529;-83
2023/05/03 00:55:19;;;;;;;5.60;3.40;;;5.00;99.90;;;;;;4969897;28;20478;-83
2023/05/03 00:57:47;;;;;;;7.27;3.80;;;5.00;99.90;;;;;;4961985;28;20427;-83
2023/05/03 01:00:15;;;;;;;8.10;3.60;;;5.00;99.90;;;;;;4977247;28;20481;-83
2023/05/03 01:02:42;;;;;;;5.53;3.33;;;5.00;99.90;;;;;;4963566;28;20432;-83
2023/05/03 01:05:09;;;;;;;3.30;2.97;;;5.00;99.90;;;;;;4957266;28;20493;-83
2023/05/03 01:07:42;;;;;;;7.27;3.23;;;4.90;99.90;;;;;;4966723;28;20942;-83
2023/05/03 01:10:21;;;;;;;5.40;4.37;;;4.90;99.90;;;;;;4977307;28;20961;-83
2023/05/03 01:12:55;;;;;;;6.33;4.00;;;4.80;99.90;;;;;;4975023;28;20965;-83
2023/05/03 01:15:36;;;;;;;6.33;3.97;;;4.80;99.90;;;;;;4977349;28;20463;-83
2023/05/03 01:18:07;;;;;;;5.37;4.23;;;4.80;99.90;;;;;;4976720;28;20542;-83
2023/05/03 01:20:35;;;;;;;7.90;4.40;;;4.80;99.90;;;;;;4976373;28;20815;-83
2023/05/03 01:23:11;;;;;;;7.47;4.10;;;4.70;99.90;;;;;;4958738;29;20434;-83
2023/05/03 01:25:39;;;;;;;5.03;3.47;;;4.70;99.90;;;;;;4959006;29;20485;-83
2023/05/03 01:28:06;;;;;;;4.60;3.70;;;4.70;99.90;;;;;;4959080;29;20460;-83
2023/05/03 01:30:34;;;;;;;4.63;3.70;;;4.70;99.90;;;;;;4960313;28;20553;-83
2023/05/03 01:33:10;;;;;;;5.67;4.03;;;4.70;99.90;;;;;;4978371;28;20446;-83
2023/05/03 01:35:41;;;;;;;6.70;4.00;;;4.70;99.90;;;;;;4977912;28;20480;-83
2023/05/03 01:38:09;;;;;;;15.57;4.63;;;4.60;99.90;;;;;;4978206;28;20435;-83
2023/05/03 01:40:41;;;;;;;6.77;3.53;;;4.60;99.90;;;;;;4966063;28;20459;-83
2023/05/03 01:43:10;;;;;;;4.97;3.87;;;4.60;99.90;;;;;;4981161;28;20803;-83
2023/05/03 01:45:37;;;;;;;5.90;3.53;;;4.60;99.90;;;;;;4981606;28;20489;-83
2023/05/03 01:48:09;;;;;;;6.43;3.87;;;4.60;99.90;;;;;;4963271;29;20522;-83
2023/05/03 01:50:36;;;;;;;9.13;4.50;;;4.60;99.90;;;;;;4963791;28;20541;-84
2023/05/03 01:53:03;;;;;;;5.03;3.93;;;4.50;99.90;;;;;;4981883;28;20470;-83
2023/05/03 01:55:30;;;;;;;5.67;3.70;;;4.60;99.90;;;;;;4982523;28;20481;-83
2023/05/03 01:57:58;;;;;;;5.50;3.40;;;4.50;99.90;;;;;;4963974;28;20467;-83
2023/05/03 02:00:25;;;;;;;5.83;3.90;;;4.50;99.90;;;;;;4976200;28;20484;-81
2023/05/03 02:02:52;;;;;;;6.73;4.00;;;4.50;99.90;;;;;;4973265;28;20438;-83
2023/05/03 02:05:19;;;;;;;12.30;4.40;;;4.50;99.90;;;;;;4976839;28;20549;-83
2023/05/03 02:07:46;;;;;;;5.80;3.67;;;4.50;99.90;;;;;;4967815;29;20543;-82
2023/05/03 02:10:13;;;;;;;6.07;4.20;;;4.40;99.90;;;;;;4979849;28;20432;-82
2023/05/03 02:12:40;;;;;;;5.60;4.47;;;4.50;99.90;;;;;;5020787;23;20475;-84
2023/05/03 02:15:10;;;;;;;6.20;4.57;;;4.50;99.90;;;;;;5006149;28;20524;-84
2023/05/03 02:17:37;;;;;;;7.60;4.53;;;4.40;99.90;;;;;;5022507;28;20444;-84
2023/05/03 02:20:05;;;;;;;5.90;3.80;;;4.40;99.90;;;;;;5027503;28;20497;-83
2023/05/03 02:22:32;;;;;;;8.20;4.17;;;4.40;99.90;;;;;;5004889;28;20473;-83
2023/05/03 02:24:59;;;;;;;6.37;4.87;;;4.40;99.90;;;;;;4996506;28;20464;-83
2023/05/03 02:27:25;;;;;;;7.50;4.40;;;4.40;99.90;;;;;;4994963;28;20546;-84
2023/05/03 02:29:53;;;;;;;7.57;4.87;;;4.40;99.90;;;;;;5000605;28;20462;-84
2023/05/03 02:32:21;;;;;;;8.03;4.20;;;4.40;99.90;;;;;;5004586;28;20539;-83
2023/05/03 02:34:49;;;;;;;7.67;4.83;;;4.40;99.90;;;;;;5004450;28;20941;-83
2023/05/03 02:37:16;;;;;;;11.87;5.80;;;4.40;99.90;;;;;;5013740;28;20745;-82
2023/05/03 02:39:42;;;;;;;6.53;4.60;;;4.40;99.90;;;;;;4996377;28;20488;-82
2023/05/03 02:42:09;;;;;;;5.90;4.20;;;4.40;99.90;;;;;;4995753;28;21026;-83
2023/05/03 02:44:36;;;;;;;7.37;4.47;;;4.40;99.90;;;;;;4996119;28;20494;-84
2023/05/03 02:47:03;;;;;;;6.50;4.13;;;4.30;99.90;;;;;;4996735;28;20822;-84
2023/05/03 02:49:31;;;;;;;5.97;4.33;;;4.30;99.90;;;;;;4996069;28;20546;-82
2023/05/03 02:51:58;;;;;;;7.07;4.13;;;4.30;99.90;;;;;;4995960;28;20474;-81
2023/05/03 02:54:25;;;;;;;5.53;3.80;;;4.40;99.90;;;;;;4995956;28;20433;-84
2023/05/03 02:56:51;;;;;;;5.87;4.33;;;4.40;99.90;;;;;;4995496;28;20463;-83
2023/05/03 02:59:18;;;;;;;7.97;4.60;;;4.40;99.90;;;;;;4996419;28;21013;-82
2023/05/03 03:01:46;;;;;;;8.43;4.03;;;4.30;99.90;;;;;;4996278;28;20838;-84
2023/05/03 03:04:14;;;;;;;10.77;5.20;;;4.30;99.90;;;;;;4996784;28;20458;-82
2023/05/03 03:06:42;;;;;;;7.40;4.50;;;4.40;99.90;;;;;;4995993;28;20434;-82
2023/05/03 03:09:09;;;;;;;5.90;3.67;;;4.30;99.90;;;;;;4995835;28;20456;-82
2023/05/03 03:11:36;;;;;;;6.70;4.30;;;4.30;99.90;;;;;;4995374;28;20456;-82
2023/05/03 03:14:03;;;;;;;6.40;4.00;;;4.30;99.90;;;;;;4995501;28;20444;-84
2023/05/03 03:16:30;;;;;;;6.30;3.97;;;4.20;99.90;;;;;;4996167;28;20453;-82
2023/05/03 03:18:56;;;;;;;5.17;4.43;;;4.20;99.90;;;;;;4995750;28;20468;-83
2023/05/03 03:21:23;;;;;;;6.83;4.10;;;4.20;99.90;;;;;;4995728;28;20552;-81
2023/05/03 03:23:51;;;;;;;21.30;5.20;;;4.20;99.90;;;;;;4996059;28;20450;-84
2023/05/03 03:26:18;;;;;;;10.20;3.80;;;4.20;99.90;;;;;;4997729;28;20432;-83
2023/05/03 03:28:45;;;;;;;7.17;4.77;;;4.20;99.90;;;;;;4996259;28;20515;-83
2023/05/03 03:31:12;;;;;;;11.33;4.00;;;4.20;99.90;;;;;;4998647;28;20554;-83
2023/05/03 03:33:39;;;;;;;5.63;3.77;;;4.20;99.90;;;;;;4996697;28;20479;-84
2023/05/03 03:36:08;;;;;;;6.50;4.00;;;4.20;99.90;;;;;;4996670;28;20463;-84
2023/05/03 03:38:35;;;;;;;9.67;4.57;;;4.10;99.90;;;;;;4996934;28;20476;-83
2023/05/03 03:41:04;;;;;;;6.20;4.07;;;4.10;99.90;;;;;;4995442;28;20512;-83
2023/05/03 03:43:30;;;;;;;8.60;4.60;;;4.20;99.90;;;;;;4993260;28;20453;-83
2023/05/03 03:45:57;;;;;;;6.50;4.13;;;4.10;99.90;;;;;;5002929;28;20470;-82
2023/05/03 03:48:24;;;;;;;6.90;4.90;;;4.10;99.90;;;;;;5015701;28;20954;-82
2023/05/03 03:50:51;;;;;;;7.10;4.47;;;4.10;99.90;;;;;;5003462;28;20522;-82
2023/05/03 03:53:18;;;;;;;6.87;4.33;;;4.20;99.90;;;;;;5014887;28;20553;-83
2023/05/03 03:55:46;;;;;;;9.17;5.23;;;4.20;99.90;;;;;;5011077;28;20451;-82
2023/05/03 03:58:14;;;;;;;8.40;4.10;;;4.20;99.90;;;;;;5007423;28;20464;-82
2023/05/03 04:00:41;;;;;;;7.83;4.40;;;4.20;99.90;;;;;;5004089;28;20487;-82
2023/05/03 04:03:08;;;;;;;6.20;4.67;;;4.20;99.90;;;;;;4994844;28;20848;-84
2023/05/03 04:05:35;;;;;;;5.63;4.80;;;4.20;99.90;;;;;;4994456;28;20953;-84
2023/05/03 04:08:02;;;;;;;6.43;4.53;;;4.20;99.90;;;;;;4995961;28;20452;-83
2023/05/03 04:10:28;;;;;;;6.93;4.60;;;4.30;99.90;;;;;;4995970;28;20431;-83
2023/05/03 04:12:55;;;;;;;9.30;4.90;;;4.20;99.90;;;;;;4997307;28;20491;-83
2023/05/03 04:15:23;;;;;;;6.33;5.07;;;4.30;99.90;;;;;;4993993;28;20493;-83
2023/05/03 04:17:50;;;;;;;9.07;4.90;;;4.30;99.90;;;;;;4994073;28;20452;-82
2023/05/03 04:20:18;;;;;;;9.00;4.47;;;4.30;99.90;;;;;;4994225;28;20483;-83
2023/05/03 04:22:44;;;;;;;8.17;5.03;;;4.40;99.90;;;;;;4993815;28;20579;-82
2023/05/03 04:25:13;;;;;;;6.07;4.83;;;4.50;99.90;;;;;;4994740;28;20456;-83
2023/05/03 04:27:41;;;;;;;7.00;5.60;;;4.50;99.90;;;;;;4996221;28;20457;-82
2023/05/03 04:30:12;;;;;;;8.73;5.20;;;4.50;99.90;;;;;;4995414;28;20981;-82
2023/05/03 04:32:41;;;;;;;11.80;5.23;;;4.50;99.90;;;;;;4995764;28;20476;-81
2023/05/03 04:35:09;;;;;;;10.40;5.90;;;4.50;99.90;;;;;;4993706;28;20474;-82
2023/05/03 04:37:36;;;;;;;11.70;4.03;;;4.60;99.90;;;;;;4993045;28;20886;-82
2023/05/03 04:40:06;;;;;;;8.73;6.10;;;4.60;99.90;;;;;;4991627;28;20489;-80
2023/05/03 04:42:32;;;;;;;6.93;5.10;;;4.70;99.90;;;;;;4993738;28;20479;-81
2023/05/03 04:45:01;;;;;;;7.17;4.73;;;4.70;99.90;;;;;;4994898;28;20541;-81
2023/05/03 04:47:28;;;;;;;8.67;4.73;;;4.70;99.90;;;;;;4992119;28;20547;-81
2023/05/03 04:49:56;;;;;;;7.93;5.50;;;4.70;99.90;;;;;;4992662;28;20450;-82
2023/05/03 04:52:24;;;;;;;9.30;5.10;;;4.80;99.90;;;;;;4992862;28;20527;-82
2023/05/03 04:54:51;;;;;;;6.73;4.57;;;4.90;99.90;;;;;;4993225;28;20559;-84
2023/05/03 04:57:18;;;;;;;13.13;5.20;;;4.90;99.90;;;;;;4993676;28;20541;-84
2023/05/03 04:59:44;;;;;;;7.20;5.47;;;4.90;99.90;;;;;;4993106;28;21090;-84
2023/05/03 05:02:11;;;;;;;7.10;5.93;;;5.00;99.90;;;;;;4993341;28;20483;-83
2023/05/03 05:04:38;;;;;;;12.03;5.77;;;5.10;99.90;;;;;;4993964;28;20456;-84
2023/05/03 05:07:07;;;;;;;7.70;5.50;;;5.10;99.90;;;;;;4993406;28;20471;-80
2023/05/03 05:09:33;;;;;;;9.23;5.77;;;5.20;99.90;;;;;;4999579;28;20464;-82
2023/05/03 05:12:00;;;;;;;7.60;5.17;;;5.30;99.90;;;;;;5003280;28;20484;-82
2023/05/03 05:14:29;;;;;;;7.60;5.90;;;5.30;99.90;;;;;;4976945;28;20427;-82
2023/05/03 05:16:56;;;;;;;12.33;5.77;;;5.40;99.90;;;;;;4999179;28;20464;-81
2023/05/03 05:19:23;;;;;;;10.73;5.73;;;5.40;99.90;;;;;;4998502;28;20421;-82
2023/05/03 05:21:51;;;;;;;7.47;6.40;;;5.50;99.90;;;;;;4999970;28;20519;-81
2023/05/03 05:24:19;;;;;;;8.93;6.70;;;5.60;99.90;;;;;;5001942;28;20458;-81
2023/05/03 05:26:46;;;;;;;11.00;6.93;;;5.60;99.90;;;;;;4998717;28;20466;-80
2023/05/03 05:29:13;;;;;;;8.33;6.40;;;5.60;99.90;;;;;;4996965;28;20455;-80
2023/05/03 05:31:40;;;;;;;8.97;6.97;;;5.60;99.90;;;;;;4996973;28;20454;-80
2023/05/03 05:34:07;;;;;;;11.00;7.73;;;5.70;99.90;;;;;;4996966;28;20456;-80
2023/05/03 05:36:34;;;;;;;16.23;7.20;;;5.80;99.90;;;;;;4996717;28;20459;-80
2023/05/03 05:39:00;;;;;;;9.30;6.93;;;5.90;99.90;;;;;;4997053;28;20460;-81
2023/05/03 05:41:29;;;;;;;16.10;7.50;;;6.00;99.90;;;;;;4996223;28;20492;-82
2023/05/03 05:43:55;;;;;;;7.90;6.73;;;6.00;99.90;;;;;;4997738;28;20465;-80
2023/05/03 05:46:22;;;;;;;11.10;6.67;;;6.10;99.90;;;;;;4998554;28;20544;-80
2023/05/03 05:48:50;;;;;;;8.10;6.23;;;6.20;99.90;;;;;;4999755;28;20457;-80
2023/05/03 05:51:17;;;;;;;10.43;6.83;;;6.30;95.50;;;;;;5000416;28;20447;-80
2023/05/03 05:53:43;;;;;;;9.37;6.83;;;6.30;79.50;;;;;;5000131;28;20636;-80
2023/05/03 05:56:11;;;;;;;9.23;6.17;;;6.40;39.10;;;;;;5000159;28;20823;-80
2023/05/03 05:58:39;;;;;;;11.63;6.60;;;6.40;43.00;;;;;;5000379;28;20461;-80
2023/05/03 06:01:06;;;;;;;8.33;6.03;;;6.50;26.40;;;;;;5000751;28;20579;-81
2023/05/03 06:03:33;;;;;;;8.60;6.13;;;6.60;26.80;;;;;;5001605;28;20506;-81
2023/05/03 06:06:00;;;;;;;8.53;5.87;;;6.60;16.70;;;;;;5001867;28;20456;-80
2023/05/03 06:08:27;;;;;;;6.10;5.47;;;6.70;1.00;;;;;;5001947;28;20464;-81
2023/05/03 06:10:54;;;;;;;7.60;6.20;;;6.70;2.30;;;;;;5002298;28;20443;-81
2023/05/03 06:13:21;;;;;;;9.63;5.83;;;6.80;5.70;;;;;;5001060;28;20576;-81
2023/05/03 06:15:49;;;;;;;10.07;5.13;;;6.90;6.50;;;;;;5001103;28;20461;-81
2023/05/03 06:18:16;;;;;;;8.43;5.17;;;7.00;1.00;;;;;;5001847;28;20525;-80
2023/05/03 06:20:43;;;;;;;7.10;5.50;;;7.00;1.00;;;;;;5001517;28;20494;-80
2023/05/03 06:23:10;;;;;;;10.33;5.60;;;7.10;1.00;;;;;;5001414;28;20504;-81
2023/05/03 06:25:37;;;;;;;8.40;5.70;;;7.10;1.00;;;;;;5002041;28;20461;-80
2023/05/03 06:28:04;;;;;;;9.40;5.10;;;7.20;1.00;;;;;;5002698;28;20525;-81
2023/05/03 06:30:31;;;;;;;7.50;5.70;;;7.30;1.00;;;;;;5002625;28;20457;-80
2023/05/03 06:32:59;;;;;;;9.00;6.30;;;7.40;1.00;;;;;;5002056;28;20561;-79
2023/05/03 06:35:26;;;;;;;8.77;5.33;;;7.50;1.00;;;;;;5002418;28;20451;-81
2023/05/03 06:37:52;;;;;;;11.30;6.60;;;7.60;1.00;;;;;;5001348;28;20466;-81
2023/05/03 06:40:23;;;;;;;8.73;6.37;;;7.60;1.00;;;;;;5001446;28;20488;-82
2023/05/03 06:42:50;;;;;;;10.10;5.73;;;7.70;1.00;;;;;;5010884;28;20482;-82
2023/05/03 06:45:17;;;;;;;7.80;6.03;;;7.80;1.00;;;;;;5009298;28;20451;-82
2023/05/03 06:47:44;;;;;;;6.90;5.20;;;7.80;1.00;;;;;;5002451;28;20470;-82
2023/05/03 06:50:12;;;;;;;8.47;4.90;;;7.90;1.00;;;;;;5001010;28;20465;-81
2023/05/03 06:52:40;;;;;;;6.43;4.90;;;8.00;1.00;;;;;;4996396;28;21040;-81
2023/05/03 06:55:08;;;;;;;7.67;5.37;;;8.10;1.00;;;;;;4997849;28;20455;-81
2023/05/03 06:57:35;;;;;;;8.70;5.40;;;8.10;1.00;;;;;;4990698;28;20490;-78
2023/05/03 07:00:05;;;;;;;9.20;5.63;;;8.20;1.00;;;;;;4964946;28;20469;-82
2023/05/03 07:02:32;;;;;;;8.63;5.47;;;8.30;1.00;;;;;;5002989;28;20470;-82
2023/05/03 07:04:59;;;;;;;12.77;5.93;;;8.30;1.00;;;;;;5002964;28;20459;-82
2023/05/03 07:07:27;;;;;;;8.97;5.60;;;8.40;99.90;;;;;;5006341;28;20459;-82
2023/05/03 07:09:54;;;;;;;5.63;4.20;;;8.50;1.00;;;;;;5003094;28;20532;-82
2023/05/03 07:12:26;;;;;;;7.83;4.73;;;8.60;99.90;;;;;;5000388;28;20526;-80
2023/05/03 07:14:53;;;;;;;8.33;4.23;;;8.60;99.90;;;;;;5001053;28;20871;-82
2023/05/03 07:17:20;;;;;;;13.20;4.70;;;8.70;99.90;;;;;;4999236;28;20484;-81
2023/05/03 07:19:47;;;;;;;8.40;4.60;;;8.70;99.90;;;;;;4998421;28;20519;-82
2023/05/03 07:22:14;;;;;;;5.70;4.00;;;8.90;99.90;;;;;;4997663;28;20497;-82
2023/05/03 07:24:42;;;;;;;5.90;3.40;;;9.00;99.90;;;;;;4991546;28;21193;-81
2023/05/03 07:27:09;;;;;;;7.37;4.50;;;9.20;99.90;;;;;;4993777;28;20460;-82
2023/05/03 07:29:36;;;;;;;7.90;4.50;;;9.30;99.90;;;;;;4991959;28;20721;-82
2023/05/03 07:32:03;;;;;;;6.90;4.40;;;9.50;1.00;;;;;;4997948;28;20536;-83
2023/05/03 07:34:31;;;;;;;7.77;4.70;;;10.00;99.50;;;;;;4996286;28;20505;-82
2023/05/03 07:36:58;;;;;;;9.67;4.53;;;10.30;1.00;;;;;;4991148;28;20492;-82
2023/05/03 07:39:25;;;;;;;6.33;4.43;;;10.40;1.00;;;;;;4996114;28;20460;-81
2023/05/03 07:41:53;;;;;;;6.27;5.20;;;10.50;99.90;;;;;;5000809;28;20512;-82
2023/05/03 07:44:20;;;;;;;7.00;4.00;;;10.60;1.00;;;;;;4994228;28;20450;-81
2023/05/03 07:46:47;;;;;;;6.63;4.80;;;10.50;99.90;;;;;;4995352;28;20450;-84
2023/05/03 07:49:14;;;;;;;7.60;3.93;;;10.60;99.90;;;;;;4990698;28;20474;-81
2023/05/03 07:51:41;;;;;;;8.60;3.87;;;10.60;99.90;;;;;;4992842;28;20465;-83
2023/05/03 07:54:08;;;;;;;8.30;3.60;;;10.70;1.00;;;;;;4995090;28;20461;-82
2023/05/03 07:56:35;;;;;;;7.13;3.87;;;10.80;1.00;;;;;;4995505;28;20937;-82
2023/05/03 07:59:03;;;;;;;4.80;3.10;;;10.90;29.80;;;;;;4994702;28;20508;-82
2023/05/03 08:01:30;;;;;;;4.47;3.60;;;10.80;1.00;;;;;;4992118;28;20480;-82
2023/05/03 08:03:57;;;;;;;6.93;3.60;;;11.00;1.00;;;;;;4992458;28;20499;-83
2023/05/03 08:06:24;;;;;;;6.23;4.30;;;11.00;1.00;;;;;;4995062;28;20443;-81
2023/05/03 08:08:51;;;;;;;7.27;4.60;;;11.10;1.00;;;;;;4994703;28;20453;-81
2023/05/03 08:11:17;;;;;;;10.60;4.67;;;11.20;1.00;;;;;;4990803;28;20447;-82
2023/05/03 08:13:44;;;;;;;7.13;3.73;;;11.40;1.00;;;;;;5010528;23;20499;-80
2023/05/03 08:16:13;;;;;;;5.20;3.67;;;11.60;1.00;;;;;;4993812;28;20569;-80
2023/05/03 08:18:40;;;;;;;7.03;3.47;;;11.90;1.00;;;;;;4996671;28;20461;-80
2023/05/03 08:21:09;;;;;;;7.00;3.50;;;12.50;1.00;;;;;;4995201;28;20490;-80
2023/05/03 08:23:36;;;;;;;6.03;3.50;;;13.10;1.00;;;;;;4994086;28;20492;-80
2023/05/03 08:26:04;;;;;;;5.70;3.30;;;14.10;1.00;;;;;;4993863;28;20450;-80
2023/05/03 08:28:31;;;;;;;6.13;3.13;;;15.10;1.00;;;;;;4999837;28;20462;-80
2023/05/03 08:30:57;;;;;;;9.30;3.30;;;16.60;1.00;;;;;;4994346;28;20541;-81
2023/05/03 08:33:26;;;;;;;5.27;2.70;;;17.40;1.00;;;;;;4993182;28;20610;-79
2023/05/03 08:35:52;;;;;;;6.03;2.73;;;18.40;99.90;;;;;;4994791;28;20820;-81
2023/05/03 08:38:19;;;;;;;3.70;2.50;;;18.70;99.90;;;;;;4998168;28;20462;-81
2023/05/03 08:40:50;;;;;;;3.77;2.03;;;20.20;99.90;;;;;;4993632;28;20480;-80
2023/05/03 08:43:20;;;;;;;3.40;1.80;;;21.00;99.90;;;;;;4997085;28;20485;-80
2023/05/03 08:45:47;;;;;;;4.30;2.23;;;22.40;99.90;;;;;;4994781;28;20879;-81
2023/05/03 08:48:14;;;;;;;3.80;2.63;;;22.40;99.90;;;;;;4998754;28;20450;-81
2023/05/03 08:50:43;;;;;;;6.57;3.40;;;21.90;99.90;;;;;;5013541;28;20449;-82
2023/05/03 08:53:11;;;;;;;4.80;2.53;;;22.40;99.90;;;;;;5000700;28;20493;-84
2023/05/03 08:55:38;;;;;;;4.50;2.60;;;23.20;99.90;;;;;;4994203;28;20458;-81
2023/05/03 08:58:11;;;;;;;5.37;2.37;;;23.50;99.90;;;;;;4994745;28;20467;-81
2023/05/03 09:00:38;;;;;;;3.53;2.30;;;23.80;99.90;;;;;;4993138;28;21020;-80
2023/05/03 09:03:05;;;;;;;4.20;2.30;;;24.60;99.90;;;;;;4993644;28;20479;-81
2023/05/03 09:05:33;;;;;;;4.23;3.17;;;25.10;99.90;;;;;;4995536;28;20465;-83
2023/05/03 09:08:07;;;;;;;4.60;2.00;;;24.50;99.90;;;;;;4995852;28;20945;-82
2023/05/03 09:10:40;;;;;;;3.10;2.20;;;25.00;99.90;;;;;;4995935;28;20501;-81
2023/05/03 09:13:07;;;;;;;5.10;2.50;;;25.50;99.90;;;;;;4994819;28;20486;-81
2023/05/03 09:15:34;;;;;;;3.70;3.30;;;25.50;99.90;;;;;;4995826;28;20553;-81
2023/05/03 09:18:12;;;;;;;4.43;2.60;;;25.40;99.90;;;;;;4994825;28;20454;-79
2023/05/03 09:20:41;;;;;;;5.10;1.90;;;25.90;99.90;;;;;;4995293;28;20902;-81
2023/05/03 09:23:10;;;;;;;5.20;2.97;;;25.50;99.90;;;;;;4995207;28;20483;-83
2023/05/03 09:25:44;;;;;;;5.67;2.80;;;26.10;99.90;;;;;;4995710;28;20459;-80
2023/05/03 09:28:12;;;;;;;4.17;2.23;;;25.70;99.90;;;;;;4995607;28;20835;-82
2023/05/03 09:30:38;;;;;;;3.27;2.20;;;25.80;99.90;;;;;;4996852;28;20537;-80
2023/05/03 09:33:06;;;;;;;4.17;2.57;;;26.00;99.90;;;;;;4996201;28;20845;-80
2023/05/03 09:35:33;;;;;;;4.83;2.20;;;26.40;99.90;;;;;;4996441;28;20462;-80
2023/05/03 09:38:01;;;;;;;4.60;2.70;;;25.60;99.90;;;;;;4995245;28;20534;-80
2023/05/03 09:40:30;;;;;;;7.37;2.17;;;25.70;99.90;;;;;;4995200;28;20489;-80
2023/05/03 09:43:07;;;;;;;4.13;2.40;;;26.80;99.90;;;;;;4994743;28;21040;-82
2023/05/03 09:45:35;;;;;;;6.20;2.00;;;27.70;99.90;;;;;;4993947;28;20943;-83
2023/05/03 09:48:06;;;;;;;4.50;2.50;;;27.90;99.90;;;;;;4994959;28;20439;-80
2023/05/03 09:50:33;;;;;;;3.40;1.73;;;27.00;99.90;;;;;;4995364;28;20508;-81
2023/05/03 09:53:03;;;;;;;3.17;2.87;;;27.10;99.90;;;;;;4995475;28;20978;-80
2023/05/03 09:55:34;;;;;;;4.50;1.90;;;28.30;99.90;;;;;;4995711;28;20534;-82
2023/05/03 09:58:05;;;;;;;3.17;2.00;;;27.50;99.90;;;;;;4996263;28;20489;-80
2023/05/03 10:00:35;;;;;;;3.83;2.07;;;27.60;99.90;;;;;;4995765;28;20490;-81
2023/05/03 10:03:07;;;;;;;4.37;2.33;;;27.40;99.90;;;;;;4998816;28;20496;-81
2023/05/03 10:05:40;;;;;;;3.03;2.03;;;28.40;99.90;;;;;;4998876;28;20439;-83
2023/05/03 10:08:08;;;;;;;4.67;2.40;;;28.30;99.90;;;;;;4998263;28;20466;-81
2023/05/03 10:10:41;;;;;;;7.43;2.73;;;28.90;99.90;;;;;;4998982;28;20545;-81
2023/05/03 10:13:08;;;;;;;5.27;2.67;;;28.90;99.90;;;;;;4998247;28;20490;-81
2023/05/03 10:15:36;;;;;;;3.50;2.37;;;28.50;99.90;;;;;;4998979;28;20454;-82
2023/05/03 10:18:07;;;;;;;5.60;2.50;;;28.20;99.90;;;;;;4999315;28;20955;-82
2023/05/03 10:20:40;;;;;;;4.03;2.70;;;28.00;99.90;;;;;;4999044;28;20447;-81
2023/05/03 10:23:13;;;;;;;2.67;2.10;;;28.70;99.90;;;;;;4998927;28;20966;-81
2023/05/03 10:26:15;;;;;;;5.33;3.00;;;28.30;99.90;;;;;;4999112;28;20462;-82
2023/05/03 10:28:42;;;;;;;4.30;2.30;;;28.70;99.90;;;;;;4998090;28;20557;-80
2023/05/03 10:31:43;;;;;;;4.37;2.40;;;28.30;99.90;;;;;;4998078;28;20996;-81
2023/05/03 10:34:20;;;;;;;3.70;2.20;;;28.00;99.90;;;;;;4998084;28;20505;-81
2023/05/03 10:36:49;;;;;;;4.60;3.33;;;29.40;99.90;;;;;;4997460;28;20446;-81
2023/05/03 10:39:17;;;;;;;9.10;3.10;;;29.90;99.90;;;;;;4997399;28;20582;-81
2023/05/03 10:41:57;;;;;;;4.87;3.47;;;29.70;99.90;;;;;;4998497;28;20585;-82
2023/05/03 10:44:27;;;;;;;5.30;2.53;;;29.50;99.90;;;;;;4998503;28;20482;-84
2023/05/03 10:46:54;;;;;;;4.97;2.80;;;30.70;99.90;;;;;;4999353;28;20459;-82
2023/05/03 10:49:25;;;;;;;4.50;3.27;;;29.90;99.90;;;;;;5000268;28;20459;-85
2023/05/03 10:51:52;;;;;;;5.90;2.80;;;30.90;99.90;;;;;;4999667;28;20451;-82
2023/05/03 10:54:19;;;;;;;3.50;2.40;;;30.60;99.90;;;;;;4998545;28;20467;-84
2023/05/03 10:56:57;;;;;;;8.57;2.73;;;30.80;99.90;;;;;;5000083;28;20530;-85
2023/05/03 10:59:24;;;;;;;4.23;2.07;;;31.00;99.90;;;;;;4999618;28;20443;-84
2023/05/03 11:01:52;;;;;;;4.50;2.17;;;30.90;99.90;;;;;;5000226;28;20494;-83
2023/05/03 11:04:33;;;;;;;6.50;2.57;;;31.10;99.90;;;;;;4997852;28;21025;-84
2023/05/03 11:07:00;;;;;;;4.33;2.40;;;32.10;99.90;;;;;;4999109;28;20439;-84
2023/05/03 11:09:31;;;;;;;7.00;2.27;;;33.30;99.90;;;;;;4998802;28;20923;-82
2023/05/03 11:12:03;;;;;;;3.10;2.00;;;33.20;99.90;;;;;;4998325;28;20451;-84
2023/05/03 11:14:30;;;;;;;3.90;2.43;;;34.70;99.90;;;;;;4998753;28;20522;-84
2023/05/03 11:16:57;;;;;;;3.37;2.20;;;34.30;99.90;;;;;;4998573;28;20881;-83
2023/05/03 11:19:24;;;;;;;7.53;2.93;;;33.20;99.90;;;;;;4999339;28;20546;-83
2023/05/03 11:21:52;;;;;;;3.77;2.10;;;31.50;99.90;;;;;;4998426;28;20573;-82
2023/05/03 11:24:19;;;;;;;4.10;2.20;;;31.70;99.90;;;;;;4999227;28;20486;-83
2023/05/03 11:26:47;;;;;;;4.47;2.00;;;32.60;99.90;;;;;;4998490;28;20474;-83
2023/05/03 11:29:17;;;;;;;4.93;2.60;;;33.80;99.90;;;;;;4998541;28;20821;-81
2023/05/03 11:31:44;;;;;;;3.63;2.13;;;34.30;99.90;;;;;;4998772;28;20455;-82
2023/05/03 11:34:11;;;;;;;3.10;2.40;;;34.30;99.90;;;;;;5000144;28;20498;-85
2023/05/03 11:36:38;;;;;;;4.03;2.70;;;33.70;99.90;;;;;;4998568;28;20957;-84
2023/05/03 11:39:05;;;;;;;4.77;2.60;;;33.70;99.90;;;;;;4998866;28;20454;-86
2023/05/03 11:41:32;;;;;;;4.73;3.33;;;33.30;99.90;;;;;;4981888;28;20519;-85
2023/05/03 11:43:59;;;;;;;4.53;2.27;;;32.60;99.90;;;;;;4997997;28;20501;-83
2023/05/03 11:46:32;;;;;;;4.30;2.70;;;33.60;99.90;;;;;;4998393;28;20498;-83
2023/05/03 11:49:00;;;;;;;4.37;2.73;;;32.90;99.90;;;;;;4999369;28;21026;-83
2023/05/03 11:51:27;;;;;;;5.10;2.60;;;34.40;99.90;;;;;;4998653;28;20546;-83
2023/05/03 11:53:54;;;;;;;5.77;3.33;;;32.90;99.90;;;;;;4987776;28;20488;-85
2023/05/03 11:56:21;;;;;;;4.50;3.00;;;33.10;99.90;;;;;;5000199;28;20479;-83
2023/05/03 11:58:54;;;;;;;4.83;2.43;;;32.40;99.90;;;;;;5001076;28;20478;-85
2023/05/03 12:01:23;;;;;;;4.67;2.53;;;32.40;99.90;;;;;;5003486;28;20525;-84
2023/05/03 12:03:55;;;;;;;4.83;2.70;;;32.70;99.90;;;;;;5002389;28;20496;-84
2023/05/03 12:06:23;;;;;;;3.57;2.63;;;32.00;99.90;;;;;;4995218;28;20454;-84
2023/05/03 12:08:50;;;;;;;4.23;2.63;;;33.10;99.90;;;;;;4997524;28;20459;-82
2023/05/03 12:11:17;;;;;;;4.10;2.47;;;32.70;99.90;;;;;;4995222;28;20493;-83
2023/05/03 12:13:44;;;;;;;4.97;3.07;;;33.60;99.90;;;;;;4996460;28;20563;-84
2023/05/03 12:16:13;;;;;;;6.27;2.57;;;34.10;99.90;;;;;;4998752;28;20550;-85
2023/05/03 12:18:49;;;;;;;5.30;2.80;;;34.90;99.90;;;;;;4999031;28;20462;-83
2023/05/03 12:21:18;;;;;;;3.53;2.53;;;35.00;99.90;;;;;;4999339;28;20459;-85
2023/05/03 12:23:45;;;;;;;2.70;2.00;;;34.40;99.90;;;;;;4998856;28;20502;-84
2023/05/03 12:26:13;;;;;;;3.67;2.60;;;35.50;99.90;;;;;;5000062;28;20462;-83
2023/05/03 12:28:40;;;;;;;3.07;2.30;;;35.70;99.90;;;;;;4999475;28;20454;-83
2023/05/03 12:31:07;;;;;;;2.70;1.70;;;36.20;99.90;;;;;;4999667;28;20895;-83
2023/05/03 12:33:34;;;;;;;2.80;2.27;;;35.70;99.90;;;;;;5001086;28;20466;-83
2023/05/03 12:36:02;;;;;;;3.40;2.70;;;35.30;99.90;;;;;;5000928;28;20513;-82
2023/05/03 12:38:30;;;;;;;3.47;2.13;;;34.70;99.90;;;;;;5000554;28;20465;-83
2023/05/03 12:40:58;;;;;;;5.20;2.57;;;35.20;99.90;;;;;;4999877;28;20526;-82
2023/05/03 12:43:25;;;;;;;3.50;2.50;;;34.50;99.90;;;;;;4999126;28;20574;-81
2023/05/03 12:45:52;;;;;;;3.80;2.23;;;34.20;99.90;;;;;;5000727;28;20466;-84
2023/05/03 12:48:22;;;;;;;4.10;2.27;;;33.90;99.90;;;;;;5000737;28;20526;-84
2023/05/03 12:50:49;;;;;;;3.57;2.47;;;34.50;99.90;;;;;;4999163;28;20466;-84
2023/05/03 12:53:16;;;;;;;2.83;2.10;;;34.00;99.90;;;;;;5000228;28;20517;-85
2023/05/03 12:55:44;;;;;;;4.70;2.67;;;33.70;99.90;;;;;;5000284;28;20490;-84
2023/05/03 12:58:11;;;;;;;5.53;3.27;;;33.70;99.90;;;;;;4999958;28;20458;-85